sensor_id;sensor_type;location;lat;lon;timestamp;temperature;humidity
14248;DHT22;7208;49.826;6.004;2023-04-24T00:01:27;7.70;99.90
14248;DHT22;7208;49.826;6.004;2023-04-24T00:03:55;7.70;99.90
14248;DHT22;7208;49.826;6.004;2023-04-24T00:06:25;7.60;99.90
14248;DHT22;7208;49.826;6.004;2023-04-24T00:09:01;7.70;99.90
14248;DHT22;7208;49.826;6.004;2023-04-24T00:11:26;7.70;99.90
14248;DHT22;7208;49.826;6.004;2023-04-24T00:13:52;7.70;99.90
14248;DHT22;7208;49.826;6.004;2023-04-24T00:16:18;7.70;99.90
14248;DHT22;7208;49.826;6.004;2023-04-24T00:18:44;7.70;99.90
14248;DHT22;7208;49.826;6.004;2023-04-24T00:21:14;7.70;99.90
14248;DHT22;7208;49.826;6.004;2023-04-24T00:23:40;7.60;99.90
14248;DHT22;7208;49.826;6.004;2023-04-24T00:26:05;7.70;99.90
14248;DHT22;7208;49.826;6.004;2023-04-24T00:28:31;7.70;99.90
14248;DHT22;7208;49.826;6.004;2023-04-24T00:30:57;7.60;99.90
14248;DHT22;7208;49.826;6.004;2023-04-24T00:33:22;7.60;99.90
14248;DHT22;7208;49.826;6.004;2023-04-24T00:35:48;7.60;99.90
14248;DHT22;7208;49.826;6.004;2023-04-24T00:38:14;7.60;99.90
14248;DHT22;7208;49.826;6.004;2023-04-24T00:40:40;7.60;99.90
14248;DHT22;7208;49.826;6.004;2023-04-24T00:43:05;7.60;99.90
14248;DHT22;7208;49.826;6.004;2023-04-24T00:45:31;7.60;99.90
14248;DHT22;7208;49.826;6.004;2023-04-24T00:47:57;7.60;99.90
14248;DHT22;7208;49.826;6.004;2023-04-24T00:50:24;7.60;99.90
14248;DHT22;7208;49.826;6.004;2023-04-24T00:52:50;7.50;99.90
14248;DHT22;7208;49.826;6.004;2023-04-24T00:55:16;7.50;99.90
14248;DHT22;7208;49.826;6.004;2023-04-24T00:57:43;7.40;99.90
14248;DHT22;7208;49.826;6.004;2023-04-24T01:00:10;7.30;99.90
14248;DHT22;7208;49.826;6.004;2023-04-24T01:02:37;7.30;99.90
14248;DHT22;7208;49.826;6.004;2023-04-24T01:05:07;7.30;99.90
14248;DHT22;7208;49.826;6.004;2023-04-24T01:07:33;7.20;99.90
14248;DHT22;7208;49.826;6.004;2023-04-24T01:09:59;7.10;99.90
14248;DHT22;7208;49.826;6.004;2023-04-24T01:12:25;7.00;99.90
14248;DHT22;7208;49.826;6.004;2023-04-24T01:14:51;6.90;99.90
14248;DHT22;7208;49.826;6.004;2023-04-24T01:17:16;6.80;99.90
14248;DHT22;7208;49.826;6.004;2023-04-24T01:19:42;6.80;99.90
14248;DHT22;7208;49.826;6.004;2023-04-24T01:22:16;6.80;99.90
14248;DHT22;7208;49.826;6.004;2023-04-24T01:24:42;6.70;99.90
14248;DHT22;7208;49.826;6.004;2023-04-24T01:27:10;7.00;99.90
14248;DHT22;7208;49.826;6.004;2023-04-24T01:29:36;6.50;99.90
14248;DHT22;7208;49.826;6.004;2023-04-24T01:32:03;6.50;99.90
14248;DHT22;7208;49.826;6.004;2023-04-24T01:34:29;6.70;99.90
14248;DHT22;7208;49.826;6.004;2023-04-24T01:36:55;6.50;99.90
14248;DHT22;7208;49.826;6.004;2023-04-24T01:39:22;6.60;99.90
14248;DHT22;7208;49.826;6.004;2023-04-24T01:41:51;6.60;99.90
14248;DHT22;7208;49.826;6.004;2023-04-24T01:44:17;6.50;99.90
14248;DHT22;7208;49.826;6.004;2023-04-24T01:46:43;6.60;99.90
14248;DHT22;7208;49.826;6.004;2023-04-24T01:49:09;6.40;99.90
14248;DHT22;7208;49.826;6.004;2023-04-24T01:51:35;6.20;99.90
14248;DHT22;7208;49.826;6.004;2023-04-24T01:54:00;6.30;99.90
14248;DHT22;7208;49.826;6.004;2023-04-24T01:56:29;6.20;99.90
14248;DHT22;7208;49.826;6.004;2023-04-24T01:58:55;6.20;99.90
14248;DHT22;7208;49.826;6.004;2023-04-24T02:01:22;6.10;99.90
14248;DHT22;7208;49.826;6.004;2023-04-24T02:03:48;5.60;99.90
14248;DHT22;7208;49.826;6.004;2023-04-24T02:06:14;6.20;99.90
14248;DHT22;7208;49.826;6.004;2023-04-24T02:08:39;6.10;99.90
14248;DHT22;7208;49.826;6.004;2023-04-24T02:11:05;6.00;99.90
14248;DHT22;7208;49.826;6.004;2023-04-24T02:13:31;6.10;99.90
14248;DHT22;7208;49.826;6.004;2023-04-24T02:15:58;6.30;99.90
14248;DHT22;7208;49.826;6.004;2023-04-24T02:18:24;6.10;99.90
14248;DHT22;7208;49.826;6.004;2023-04-24T02:20:49;6.00;99.90
14248;DHT22;7208;49.826;6.004;2023-04-24T02:23:15;6.30;99.90
14248;DHT22;7208;49.826;6.004;2023-04-24T02:25:41;5.90;99.90
14248;DHT22;7208;49.826;6.004;2023-04-24T02:28:06;5.80;99.90
14248;DHT22;7208;49.826;6.004;2023-04-24T02:30:32;5.80;99.90
14248;DHT22;7208;49.826;6.004;2023-04-24T02:32:57;5.80;99.90
14248;DHT22;7208;49.826;6.004;2023-04-24T02:35:23;5.90;99.90
14248;DHT22;7208;49.826;6.004;2023-04-24T02:37:49;6.00;99.90
14248;DHT22;7208;49.826;6.004;2023-04-24T02:40:14;6.00;99.90
14248;DHT22;7208;49.826;6.004;2023-04-24T02:42:40;6.10;99.90
14248;DHT22;7208;49.826;6.004;2023-04-24T02:45:06;6.10;99.90
14248;DHT22;7208;49.826;6.004;2023-04-24T02:47:32;6.10;99.90
14248;DHT22;7208;49.826;6.004;2023-04-24T02:49:57;6.10;99.90
14248;DHT22;7208;49.826;6.004;2023-04-24T02:52:23;6.30;99.90
14248;DHT22;7208;49.826;6.004;2023-04-24T02:54:49;6.20;99.90
14248;DHT22;7208;49.826;6.004;2023-04-24T02:57:14;6.20;99.90
14248;DHT22;7208;49.826;6.004;2023-04-24T02:59:40;6.20;99.90
14248;DHT22;7208;49.826;6.004;2023-04-24T03:02:06;6.20;99.90
14248;DHT22;7208;49.826;6.004;2023-04-24T03:04:31;6.30;99.90
14248;DHT22;7208;49.826;6.004;2023-04-24T03:06:57;6.30;99.90
14248;DHT22;7208;49.826;6.004;2023-04-24T03:09:24;6.30;99.90
14248;DHT22;7208;49.826;6.004;2023-04-24T03:11:50;6.30;99.90
14248;DHT22;7208;49.826;6.004;2023-04-24T03:14:16;6.40;99.90
14248;DHT22;7208;49.826;6.004;2023-04-24T03:16:42;6.30;99.90
14248;DHT22;7208;49.826;6.004;2023-04-24T03:19:07;6.40;99.90
14248;DHT22;7208;49.826;6.004;2023-04-24T03:21:33;6.40;99.90
14248;DHT22;7208;49.826;6.004;2023-04-24T03:24:01;6.50;99.90
14248;DHT22;7208;49.826;6.004;2023-04-24T03:26:27;6.50;99.90
14248;DHT22;7208;49.826;6.004;2023-04-24T03:28:53;6.50;99.90
14248;DHT22;7208;49.826;6.004;2023-04-24T03:31:18;6.60;99.90
14248;DHT22;7208;49.826;6.004;2023-04-24T03:33:46;6.60;99.90
14248;DHT22;7208;49.826;6.004;2023-04-24T03:36:12;6.50;99.90
14248;DHT22;7208;49.826;6.004;2023-04-24T03:38:37;6.40;99.90
14248;DHT22;7208;49.826;6.004;2023-04-24T03:41:03;6.30;99.90
14248;DHT22;7208;49.826;6.004;2023-04-24T16:05:14;11.20;99.90
14248;DHT22;7208;49.826;6.004;2023-04-24T16:07:40;10.70;99.90
14248;DHT22;7208;49.826;6.004;2023-04-24T16:10:07;10.40;99.90
14248;DHT22;7208;49.826;6.004;2023-04-24T16:12:33;10.20;99.90
14248;DHT22;7208;49.826;6.004;2023-04-24T16:14:59;10.20;99.90
14248;DHT22;7208;49.826;6.004;2023-04-24T16:17:25;10.30;99.90
14248;DHT22;7208;49.826;6.004;2023-04-24T16:19:51;10.30;99.90
14248;DHT22;7208;49.826;6.004;2023-04-24T16:22:16;10.20;99.90
14248;DHT22;7208;49.826;6.004;2023-04-24T16:24:42;10.20;99.90
14248;DHT22;7208;49.826;6.004;2023-04-24T16:27:08;10.10;99.90
14248;DHT22;7208;49.826;6.004;2023-04-24T16:29:34;9.90;99.90
14248;DHT22;7208;49.826;6.004;2023-04-24T16:32:00;9.90;99.90
14248;DHT22;7208;49.826;6.004;2023-04-24T16:34:25;9.90;99.90
14248;DHT22;7208;49.826;6.004;2023-04-24T16:36:51;9.90;99.90
14248;DHT22;7208;49.826;6.004;2023-04-24T16:39:17;9.90;99.90
14248;DHT22;7208;49.826;6.004;2023-04-24T16:41:42;9.80;99.90
14248;DHT22;7208;49.826;6.004;2023-04-24T16:44:08;9.80;99.90
14248;DHT22;7208;49.826;6.004;2023-04-24T16:46:34;9.80;99.90
14248;DHT22;7208;49.826;6.004;2023-04-24T16:49:00;9.30;99.90
14248;DHT22;7208;49.826;6.004;2023-04-24T16:51:25;8.50;99.90
14248;DHT22;7208;49.826;6.004;2023-04-24T16:53:52;8.10;99.90
14248;DHT22;7208;49.826;6.004;2023-04-24T16:56:17;7.90;99.90
14248;DHT22;7208;49.826;6.004;2023-04-24T16:58:43;7.80;99.90
14248;DHT22;7208;49.826;6.004;2023-04-24T17:01:09;7.70;99.90
14248;DHT22;7208;49.826;6.004;2023-04-24T17:03:34;7.60;99.90
14248;DHT22;7208;49.826;6.004;2023-04-24T17:06:00;7.50;99.90
14248;DHT22;7208;49.826;6.004;2023-04-24T17:08:26;7.40;99.90
14248;DHT22;7208;49.826;6.004;2023-04-24T17:10:52;7.40;99.90
14248;DHT22;7208;49.826;6.004;2023-04-24T17:13:18;7.40;99.90
14248;DHT22;7208;49.826;6.004;2023-04-24T17:15:43;7.40;99.90
14248;DHT22;7208;49.826;6.004;2023-04-24T17:18:09;7.40;99.90
14248;DHT22;7208;49.826;6.004;2023-04-24T17:20:35;7.20;99.90
14248;DHT22;7208;49.826;6.004;2023-04-24T17:23:00;6.90;99.90
14248;DHT22;7208;49.826;6.004;2023-04-24T17:25:26;6.70;99.90
14248;DHT22;7208;49.826;6.004;2023-04-24T17:27:52;6.70;99.90
14248;DHT22;7208;49.826;6.004;2023-04-24T17:30:17;6.90;99.90
14248;DHT22;7208;49.826;6.004;2023-04-24T17:32:43;6.90;99.90
14248;DHT22;7208;49.826;6.004;2023-04-24T17:35:09;6.60;99.90
14248;DHT22;7208;49.826;6.004;2023-04-24T17:37:35;6.60;99.90
14248;DHT22;7208;49.826;6.004;2023-04-24T17:40:01;6.50;99.90
14248;DHT22;7208;49.826;6.004;2023-04-24T17:42:26;6.50;99.90
14248;DHT22;7208;49.826;6.004;2023-04-24T17:44:52;6.60;99.90
14248;DHT22;7208;49.826;6.004;2023-04-24T17:47:17;6.60;99.90
14248;DHT22;7208;49.826;6.004;2023-04-24T17:49:45;6.60;99.90
14248;DHT22;7208;49.826;6.004;2023-04-24T17:52:10;6.60;99.90
14248;DHT22;7208;49.826;6.004;2023-04-24T17:54:36;6.50;99.90
14248;DHT22;7208;49.826;6.004;2023-04-24T17:57:02;6.50;99.90
14248;DHT22;7208;49.826;6.004;2023-04-24T17:59:27;6.50;99.90
14248;DHT22;7208;49.826;6.004;2023-04-24T18:01:53;6.60;99.90
14248;DHT22;7208;49.826;6.004;2023-04-24T18:04:19;6.60;99.90
14248;DHT22;7208;49.826;6.004;2023-04-24T18:06:45;6.80;99.90
14248;DHT22;7208;49.826;6.004;2023-04-24T18:09:10;6.60;99.90
14248;DHT22;7208;49.826;6.004;2023-04-24T18:11:37;6.60;99.90
14248;DHT22;7208;49.826;6.004;2023-04-24T18:14:02;6.60;99.90
14248;DHT22;7208;49.826;6.004;2023-04-24T18:16:28;6.60;99.90
14248;DHT22;7208;49.826;6.004;2023-04-24T18:18:54;6.60;99.90
14248;DHT22;7208;49.826;6.004;2023-04-24T18:21:19;6.60;99.90
14248;DHT22;7208;49.826;6.004;2023-04-24T18:23:45;6.50;99.90
14248;DHT22;7208;49.826;6.004;2023-04-24T18:26:11;6.50;99.90
14248;DHT22;7208;49.826;6.004;2023-04-24T18:28:42;6.50;99.90
14248;DHT22;7208;49.826;6.004;2023-04-24T18:31:07;6.50;99.90
14248;DHT22;7208;49.826;6.004;2023-04-24T18:33:33;6.50;99.90
14248;DHT22;7208;49.826;6.004;2023-04-24T18:35:59;6.50;99.90
14248;DHT22;7208;49.826;6.004;2023-04-24T18:38:25;6.40;99.90
14248;DHT22;7208;49.826;6.004;2023-04-24T18:40:50;6.40;99.90
14248;DHT22;7208;49.826;6.004;2023-04-24T18:43:16;6.40;99.90
14248;DHT22;7208;49.826;6.004;2023-04-24T18:45:41;6.40;99.90
14248;DHT22;7208;49.826;6.004;2023-04-24T18:48:07;6.30;99.90
14248;DHT22;7208;49.826;6.004;2023-04-24T18:50:33;6.60;99.90
14248;DHT22;7208;49.826;6.004;2023-04-24T18:52:58;6.40;99.90
14248;DHT22;7208;49.826;6.004;2023-04-24T18:55:24;6.40;99.90
14248;DHT22;7208;49.826;6.004;2023-04-24T18:57:50;6.40;99.90
14248;DHT22;7208;49.826;6.004;2023-04-24T19:00:16;6.40;99.90
14248;DHT22;7208;49.826;6.004;2023-04-24T19:02:43;6.90;99.90
14248;DHT22;7208;49.826;6.004;2023-04-24T19:05:08;6.50;99.90
14248;DHT22;7208;49.826;6.004;2023-04-24T19:07:35;6.50;99.90
14248;DHT22;7208;49.826;6.004;2023-04-24T19:10:01;6.50;99.90
14248;DHT22;7208;49.826;6.004;2023-04-24T19:12:27;6.60;99.90
14248;DHT22;7208;49.826;6.004;2023-04-24T19:14:52;6.70;99.90
14248;DHT22;7208;49.826;6.004;2023-04-24T19:17:20;6.60;99.90
14248;DHT22;7208;49.826;6.004;2023-04-24T19:19:48;6.60;99.90
14248;DHT22;7208;49.826;6.004;2023-04-24T19:22:15;6.60;99.90
14248;DHT22;7208;49.826;6.004;2023-04-24T19:24:41;6.60;99.90
14248;DHT22;7208;49.826;6.004;2023-04-24T19:27:07;6.70;99.90
14248;DHT22;7208;49.826;6.004;2023-04-24T19:29:32;6.70;99.90
14248;DHT22;7208;49.826;6.004;2023-04-24T19:31:58;6.70;99.90
14248;DHT22;7208;49.826;6.004;2023-04-24T19:34:24;6.70;99.90
14248;DHT22;7208;49.826;6.004;2023-04-24T19:36:50;6.70;99.90
14248;DHT22;7208;49.826;6.004;2023-04-24T19:39:16;6.70;99.90
14248;DHT22;7208;49.826;6.004;2023-04-24T19:41:41;6.70;99.90
14248;DHT22;7208;49.826;6.004;2023-04-24T19:44:07;6.60;99.90
14248;DHT22;7208;49.826;6.004;2023-04-24T19:46:32;6.60;99.90
14248;DHT22;7208;49.826;6.004;2023-04-24T19:48:58;6.60;99.90
14248;DHT22;7208;49.826;6.004;2023-04-24T19:51:24;6.50;99.90
14248;DHT22;7208;49.826;6.004;2023-04-24T19:53:50;6.80;99.90
14248;DHT22;7208;49.826;6.004;2023-04-24T19:56:15;6.60;99.90
14248;DHT22;7208;49.826;6.004;2023-04-24T19:58:41;6.60;99.90
14248;DHT22;7208;49.826;6.004;2023-04-24T20:01:06;6.70;99.90
14248;DHT22;7208;49.826;6.004;2023-04-24T20:03:32;6.70;99.90
14248;DHT22;7208;49.826;6.004;2023-04-24T20:05:58;6.60;99.90
14248;DHT22;7208;49.826;6.004;2023-04-24T20:08:24;7.00;99.90
14248;DHT22;7208;49.826;6.004;2023-04-24T20:10:50;6.70;99.90
14248;DHT22;7208;49.826;6.004;2023-04-24T20:13:16;6.70;99.90
14248;DHT22;7208;49.826;6.004;2023-04-24T20:15:42;6.80;99.90
14248;DHT22;7208;49.826;6.004;2023-04-24T20:18:07;6.80;99.90
14248;DHT22;7208;49.826;6.004;2023-04-24T20:20:33;6.70;99.90
14248;DHT22;7208;49.826;6.004;2023-04-24T20:23:03;6.70;99.90
14248;DHT22;7208;49.826;6.004;2023-04-24T20:25:29;6.70;99.90
14248;DHT22;7208;49.826;6.004;2023-04-24T20:27:54;6.70;99.90
14248;DHT22;7208;49.826;6.004;2023-04-24T20:30:20;6.60;99.90
14248;DHT22;7208;49.826;6.004;2023-04-24T20:32:46;6.70;99.90
14248;DHT22;7208;49.826;6.004;2023-04-24T20:35:12;6.70;99.90
14248;DHT22;7208;49.826;6.004;2023-04-24T20:37:37;6.70;99.90
14248;DHT22;7208;49.826;6.004;2023-04-24T20:40:03;6.70;99.90
14248;DHT22;7208;49.826;6.004;2023-04-24T20:42:32;6.70;99.90
14248;DHT22;7208;49.826;6.004;2023-04-24T20:44:59;6.60;99.90
14248;DHT22;7208;49.826;6.004;2023-04-24T20:47:25;6.70;99.90
14248;DHT22;7208;49.826;6.004;2023-04-24T20:49:51;6.60;99.90
14248;DHT22;7208;49.826;6.004;2023-04-24T20:52:16;6.60;99.90
14248;DHT22;7208;49.826;6.004;2023-04-24T20:54:42;6.60;99.90
14248;DHT22;7208;49.826;6.004;2023-04-24T20:57:08;6.60;99.90
14248;DHT22;7208;49.826;6.004;2023-04-24T20:59:34;6.60;99.90
14248;DHT22;7208;49.826;6.004;2023-04-24T21:02:00;6.50;99.90
14248;DHT22;7208;49.826;6.004;2023-04-24T21:04:26;6.50;99.90
14248;DHT22;7208;49.826;6.004;2023-04-24T21:06:51;6.50;99.90
14248;DHT22;7208;49.826;6.004;2023-04-24T21:09:17;6.50;99.90
14248;DHT22;7208;49.826;6.004;2023-04-24T21:11:43;6.50;99.90
14248;DHT22;7208;49.826;6.004;2023-04-24T21:14:08;6.60;99.90
14248;DHT22;7208;49.826;6.004;2023-04-24T21:16:35;6.50;99.90
14248;DHT22;7208;49.826;6.004;2023-04-24T21:19:01;6.50;99.90
14248;DHT22;7208;49.826;6.004;2023-04-24T21:21:26;6.40;99.90
14248;DHT22;7208;49.826;6.004;2023-04-24T21:23:52;6.40;99.90
14248;DHT22;7208;49.826;6.004;2023-04-24T21:26:18;6.50;99.90
14248;DHT22;7208;49.826;6.004;2023-04-24T21:28:44;6.40;99.90
14248;DHT22;7208;49.826;6.004;2023-04-24T21:31:09;6.40;99.90
14248;DHT22;7208;49.826;6.004;2023-04-24T21:33:36;6.30;99.90
14248;DHT22;7208;49.826;6.004;2023-04-24T21:36:02;5.90;99.90
14248;DHT22;7208;49.826;6.004;2023-04-24T21:38:28;6.30;99.90
14248;DHT22;7208;49.826;6.004;2023-04-24T21:40:54;6.30;99.90
14248;DHT22;7208;49.826;6.004;2023-04-24T21:43:20;6.30;99.90
14248;DHT22;7208;49.826;6.004;2023-04-24T21:45:46;6.20;99.90
14248;DHT22;7208;49.826;6.004;2023-04-24T21:48:11;6.20;99.90
14248;DHT22;7208;49.826;6.004;2023-04-24T21:50:38;6.20;99.90
14248;DHT22;7208;49.826;6.004;2023-04-24T21:53:04;6.20;99.90
14248;DHT22;7208;49.826;6.004;2023-04-24T21:55:29;6.20;99.90
14248;DHT22;7208;49.826;6.004;2023-04-24T21:57:55;6.20;99.90
14248;DHT22;7208;49.826;6.004;2023-04-24T22:00:21;6.20;99.90
14248;DHT22;7208;49.826;6.004;2023-04-24T22:02:48;6.20;99.90
14248;DHT22;7208;49.826;6.004;2023-04-24T22:05:13;6.20;99.90
14248;DHT22;7208;49.826;6.004;2023-04-24T22:07:43;6.20;99.90
14248;DHT22;7208;49.826;6.004;2023-04-24T22:10:13;6.20;99.90
14248;DHT22;7208;49.826;6.004;2023-04-24T22:12:40;6.10;99.90
14248;DHT22;7208;49.826;6.004;2023-04-24T22:15:06;6.10;99.90
14248;DHT22;7208;49.826;6.004;2023-04-24T22:17:33;6.10;99.90
14248;DHT22;7208;49.826;6.004;2023-04-24T22:19:59;5.70;99.90
14248;DHT22;7208;49.826;6.004;2023-04-24T22:22:26;6.10;99.90
14248;DHT22;7208;49.826;6.004;2023-04-24T22:24:52;6.10;99.90
14248;DHT22;7208;49.826;6.004;2023-04-24T22:27:18;6.10;99.90
14248;DHT22;7208;49.826;6.004;2023-04-24T22:29:43;6.00;99.90
14248;DHT22;7208;49.826;6.004;2023-04-24T22:32:09;6.10;99.90
14248;DHT22;7208;49.826;6.004;2023-04-24T22:34:34;6.00;99.90
14248;DHT22;7208;49.826;6.004;2023-04-24T22:37:00;6.10;99.90
14248;DHT22;7208;49.826;6.004;2023-04-24T22:39:26;6.10;99.90
14248;DHT22;7208;49.826;6.004;2023-04-24T22:41:52;6.30;99.90
14248;DHT22;7208;49.826;6.004;2023-04-24T22:44:17;6.10;99.90
14248;DHT22;7208;49.826;6.004;2023-04-24T22:46:43;6.10;99.90
14248;DHT22;7208;49.826;6.004;2023-04-24T22:49:09;6.10;99.90
14248;DHT22;7208;49.826;6.004;2023-04-24T22:51:35;6.10;99.90
14248;DHT22;7208;49.826;6.004;2023-04-24T22:54:02;6.10;99.90
14248;DHT22;7208;49.826;6.004;2023-04-24T22:56:28;6.10;99.90
14248;DHT22;7208;49.826;6.004;2023-04-24T22:58:54;6.30;99.90
14248;DHT22;7208;49.826;6.004;2023-04-24T23:01:20;6.10;99.90
14248;DHT22;7208;49.826;6.004;2023-04-24T23:03:46;6.10;99.90
14248;DHT22;7208;49.826;6.004;2023-04-24T23:06:12;6.10;99.90
14248;DHT22;7208;49.826;6.004;2023-04-24T23:08:37;6.00;99.90
14248;DHT22;7208;49.826;6.004;2023-04-24T23:11:03;6.10;99.90
14248;DHT22;7208;49.826;6.004;2023-04-24T23:13:28;6.10;99.90
14248;DHT22;7208;49.826;6.004;2023-04-24T23:15:54;6.10;99.90
14248;DHT22;7208;49.826;6.004;2023-04-24T23:18:20;6.10;99.90
14248;DHT22;7208;49.826;6.004;2023-04-24T23:20:46;6.10;99.90
14248;DHT22;7208;49.826;6.004;2023-04-24T23:23:11;6.10;99.90
14248;DHT22;7208;49.826;6.004;2023-04-24T23:25:37;6.10;99.90
14248;DHT22;7208;49.826;6.004;2023-04-24T23:28:03;6.10;99.90
14248;DHT22;7208;49.826;6.004;2023-04-24T23:30:29;6.10;99.90
14248;DHT22;7208;49.826;6.004;2023-04-24T23:32:54;6.10;99.90
14248;DHT22;7208;49.826;6.004;2023-04-24T23:35:20;6.10;99.90
14248;DHT22;7208;49.826;6.004;2023-04-24T23:37:46;6.10;99.90
14248;DHT22;7208;49.826;6.004;2023-04-24T23:40:12;6.10;99.90
14248;DHT22;7208;49.826;6.004;2023-04-24T23:42:38;6.10;99.90
14248;DHT22;7208;49.826;6.004;2023-04-24T23:45:04;6.10;99.90
14248;DHT22;7208;49.826;6.004;2023-04-24T23:47:30;6.10;99.90
14248;DHT22;7208;49.826;6.004;2023-04-24T23:49:55;6.10;99.90
14248;DHT22;7208;49.826;6.004;2023-04-24T23:52:21;6.10;99.90
14248;DHT22;7208;49.826;6.004;2023-04-24T23:54:46;6.10;99.90
14248;DHT22;7208;49.826;6.004;2023-04-24T23:57:12;6.10;99.90
14248;DHT22;7208;49.826;6.004;2023-04-24T23:59:38;6.10;99.90
